Heathsville, Virginia
Current Conditions -  °F | °C
As of 3:53 AM on Friday 19 Dec 2014 (Local Time) from KNUI Reporting Station
Overcast Overcast  
Wind Chill: 31°   Ceiling: 9000
Heat Index: 35°   Visibility: 10mi
Dew Point: 22°   Wind: 5mph
Humidity: 59%   Direction: 310°NW
Pressure: 30.1"   Gusts: NA
Location:  37.92°N, 76.47°W
Report Text: KNUI 190853Z AUTO 31004KT 10SM FEW055 BKN090 OVC110 02/M06 A3010 RMK AO2 SLP193 T00171056 50000
Loading
Personal Weather Stations






























Interactive Weather Map New forecast layout! Learn more

10-Day Weather Forecast

Advertisements
Track Severe Weather on mobile